This is the latest recevied weather packets stored in our database for station/object AD6NH. If no packets are shown the sender has not sent any weather packets the latest 10 day(s).
| Time | Temp. | Humidity | Pressure | Rain* | Wind** | Luminosity | Snow |
|---|---|---|---|---|---|---|---|
| 1777688822 | 19.44° C | 71% | 1012.6 hPa | 0 mm | - | - | - |
| 1777688222 | 20° C | 69% | 1012.6 hPa | 0 mm | - | - | - |
| 1777687623 | 20.56° C | 66% | 1012.4 hPa | 0 mm | - | - | - |
| 1777687023 | 21.11° C | 63% | 1012.2 hPa | 0 mm | - | - | - |
| 1777686423 | 21.11° C | 63% | 1012.3 hPa | 0 mm | - | - | - |
| 1777685823 | 21.67° C | 62% | 1012.2 hPa | 0 mm | - | - | - |
| 1777685222 | 21.67° C | 61% | 1012.1 hPa | 0 mm | - | - | - |
| 1777684622 | 22.22° C | 60% | 1012.2 hPa | 0 mm | - | - | - |
| 1777684022 | 22.22° C | 59% | 1012.1 hPa | 0 mm | - | - | - |
| 1777683423 | 22.22° C | 59% | 1012.2 hPa | 0 mm | - | - | - |
| 1777682823 | 22.78° C | 57% | 1012.2 hPa | 0 mm | - | - | - |
| 1777682223 | 22.22° C | 60% | 1012.2 hPa | 0 mm | - | - | - |
| 1777681623 | 22.22° C | 59% | 1012.1 hPa | 0 mm | - | - | - |
| 1777681022 | 22.22° C | 59% | 1012.2 hPa | 0 mm | - | - | - |
| 1777680423 | 21.67° C | 60% | 1012.4 hPa | 0 mm | - | - | - |
| 1777679822 | 22.22° C | 59% | 1012.3 hPa | 0 mm | - | - | - |
| 1777679223 | 22.22° C | 59% | 1012.4 hPa | 0 mm | - | - | - |
| 1777678622 | 22.78° C | 57% | 1012.2 hPa | 0 mm | - | - | - |
| 1777678022 | 22.78° C | 57% | 1012.2 hPa | 0 mm | - | - | - |
| 1777677422 | 22.78° C | 57% | 1012.3 hPa | 0 mm | - | - | - |
| 1777676823 | 23.33° C | 55% | 1012.3 hPa | 0 mm | - | - | - |
| 1777676223 | 23.33° C | 56% | 1012.5 hPa | 0 mm | - | - | - |
| 1777675623 | 23.33° C | 56% | 1012.6 hPa | 0 mm | - | - | - |
| 1777675023 | 23.89° C | 54% | 1012.6 hPa | 0 mm | - | - | - |
| 1777674423 | 24.44° C | 53% | 1012.8 hPa | 0 mm | - | - | - |
* Rain latest hour (hover to see other rain measurements)
** Current wind speed in m/s (hover to see current wind gust speed)